»·PEaware :: UAL241 KPHX-KLAS

UAL241 :: KPHX-KLAS

FLIGHT INFORMATION

Flight Status: Arrived
Operator:
United Airlines
More flights by this operator :: More flights under this callsign
Pilot: Ryan H. (12491)
Aircraft: BOEING 737-800
(B738)
More flights by this aircraft type
Origin: KPHX Phoenix Sky Harbor Intl
United States
Destination: KLAS McCarran Intl
United States
More flights between these airports :: More routes between these airports
Route: +MAYSA5 SISIE IGM TYSSN5
File this flight plan on PilotEdge
Remarks:
Altitude:
(Current/Filed)
260ft
Speed:
(Current/Filed)
450kts
Departed: 27-Sep-17 03:44 PM
Arrived: 27-Sep-17 04:26 PM
Distance/Time
Traveled:
222nm/0:42
Distance/Time
To Go:
Arrived

Flight Plot

Page will automatically refresh every two minutes.

Flight plan parsing failed; only flown route is shown


Map Options




Map Legend


Flown Route
Filed Route
Departure Airport
Arrival Airport
Navaid (VOR, NDB)
Fix

Horizontal Profiles

Position Reports

Time Latitude Longitude Heading Altitude Ground
Speed
27-Sep-17 15:33 33.433422 -112.007964 316 1144ft 0kts
27-Sep-17 15:34 33.433422 -112.007964 316 1144ft 0kts
27-Sep-17 15:35 33.433422 -112.007964 316 1144ft 0kts
27-Sep-17 15:36 33.433422 -112.007964 316 1144ft 0kts
27-Sep-17 15:37 33.433422 -112.007964 316 1144ft 0kts
27-Sep-17 15:38 33.433422 -112.007964 316 1144ft 0kts
27-Sep-17 15:39 33.433422 -112.007964 316 1144ft 0kts
27-Sep-17 15:40 33.433422 -112.007964 316 1144ft 0kts
27-Sep-17 15:41 33.433439 -112.006931 168 1144ft 10kts
27-Sep-17 15:42 33.433911 -112.007423 194 1144ft 0kts
27-Sep-17 15:43 33.433911 -112.007423 194 1144ft 0kts
27-Sep-17 15:44 33.432125 -112.004109 90 1144ft 24kts
27-Sep-17 15:45 33.432113 -111.995015 89 1144ft 25kts
27-Sep-17 15:46 33.431935 -111.993665 152 1144ft 0kts
27-Sep-17 15:47 33.431425 -111.993530 175 1144ft 8kts
27-Sep-17 15:48 33.431027 -112.007149 270 1148ft 159kts
27-Sep-17 15:49 33.443998 -112.066330 284 4777ft 210kts
27-Sep-17 15:50 33.483144 -112.127240 321 8658ft 266kts
27-Sep-17 15:51 33.548982 -112.183626 345 12180ft 322kts
27-Sep-17 15:52 33.646401 -112.215225 344 13765ft 426kts
27-Sep-17 15:53 33.768521 -112.253308 344 16760ft 450kts
27-Sep-17 15:54 33.886874 -112.290376 343 21171ft 427kts
27-Sep-17 15:55 33.999029 -112.325468 342 24524ft 412kts
27-Sep-17 15:56 34.092988 -112.399709 315 25949ft 420kts
27-Sep-17 15:57 34.187796 -112.496331 317 26013ft 464kts
27-Sep-17 15:58 34.287439 -112.596969 317 26041ft 468kts
27-Sep-17 15:59 34.387171 -112.697953 318 26064ft 467kts
27-Sep-17 16:00 34.487076 -112.799124 318 26079ft 466kts
27-Sep-17 16:01 34.586359 -112.899995 317 26078ft 465kts
27-Sep-17 16:02 34.681738 -113.005706 317 26087ft 464kts
27-Sep-17 16:03 34.777782 -113.111147 315 26093ft 463kts
27-Sep-17 16:04 34.853771 -113.237097 304 26084ft 462kts
27-Sep-17 16:05 34.928641 -113.364579 305 26070ft 464kts
27-Sep-17 16:06 35.003651 -113.493013 305 26057ft 464kts
27-Sep-17 16:07 35.078541 -113.621289 305 26051ft 465kts
27-Sep-17 16:08 35.153780 -113.750482 306 26050ft 465kts
27-Sep-17 16:09 35.226041 -113.874688 306 23838ft 437kts
27-Sep-17 16:10 35.306059 -113.979607 326 21645ft 412kts
27-Sep-17 16:11 35.396429 -114.060507 324 19671ft 391kts
27-Sep-17 16:12 35.481040 -114.139215 324 17755ft 374kts
27-Sep-17 16:13 35.562424 -114.215382 323 15830ft 362kts
27-Sep-17 16:14 35.641576 -114.289320 323 13968ft 351kts
27-Sep-17 16:15 35.705448 -114.349103 323 12471ft 342kts
27-Sep-17 16:16 35.796526 -114.408931 340 11986ft 295kts
27-Sep-17 16:17 35.860791 -114.438816 339 11987ft 296kts
27-Sep-17 16:18 35.937421 -114.474778 339 11702ft 284kts
27-Sep-17 16:19 36.021181 -114.514134 337 10300ft 251kts
27-Sep-17 16:20 36.046660 -114.573318 282 9734ft 247kts
27-Sep-17 16:21 36.059883 -114.650307 283 8728ft 205kts
27-Sep-17 16:22 36.069729 -114.717007 277 8228ft 196kts
27-Sep-17 16:23 36.072987 -114.784668 272 7212ft 193kts
27-Sep-17 16:24 36.073728 -114.849901 271 6444ft 187kts
27-Sep-17 16:25 36.073830 -114.914798 271 5539ft 188kts
27-Sep-17 16:26 36.073791 -114.978389 271 4555ft 183kts
27-Sep-17 16:27 36.073734 -115.039512 271 3588ft 161kts
27-Sep-17 16:28 36.073680 -115.091432 270 2748ft 150kts
27-Sep-17 16:29 36.073630 -115.140258 269 2191ft 111kts
27-Sep-17 16:30 36.074743 -115.150585 301 2190ft 0kts
27-Sep-17 16:31 36.077906 -115.152850 336 2190ft 0kts
27-Sep-17 16:32 36.079052 -115.153505 333 2190ft 14kts
27-Sep-17 16:33 36.081755 -115.153618 57 2190ft 3kts
27-Sep-17 16:34 36.082260 -115.153247 24 2190ft 0kts

Navigation Log

Ident Type
Flight plan parsing failed, navigation log unavailable